sensor_id;sensor_type;location;lat;lon;timestamp;temperature;humidity
70089;HTU21D;57460;47.134;19.888;2023-12-14T00:01:15;7.29;83.28
70089;HTU21D;57460;47.134;19.888;2023-12-14T00:03:41;7.35;83.13
70089;HTU21D;57460;47.134;19.888;2023-12-14T00:06:10;7.33;83.11
70089;HTU21D;57460;47.134;19.888;2023-12-14T00:08:36;7.45;82.82
70089;HTU21D;57460;47.134;19.888;2023-12-14T00:11:06;7.48;82.47
70089;HTU21D;57460;47.134;19.888;2023-12-14T00:13:32;7.44;82.63
70089;HTU21D;57460;47.134;19.888;2023-12-14T00:15:58;7.47;82.61
70089;HTU21D;57460;47.134;19.888;2023-12-14T00:18:25;7.44;82.68
70089;HTU21D;57460;47.134;19.888;2023-12-14T00:20:51;7.43;82.83
70089;HTU21D;57460;47.134;19.888;2023-12-14T00:23:18;7.50;82.92
70089;HTU21D;57460;47.134;19.888;2023-12-14T00:25:44;7.61;82.83
70089;HTU21D;57460;47.134;19.888;2023-12-14T00:28:10;7.71;82.35
70089;HTU21D;57460;47.134;19.888;2023-12-14T00:30:35;7.70;82.17
70089;HTU21D;57460;47.134;19.888;2023-12-14T00:33:01;7.64;82.25
70089;HTU21D;57460;47.134;19.888;2023-12-14T00:35:27;7.68;82.40
70089;HTU21D;57460;47.134;19.888;2023-12-14T00:37:53;7.74;82.42
70089;HTU21D;57460;47.134;19.888;2023-12-14T00:40:18;7.86;82.26
70089;HTU21D;57460;47.134;19.888;2023-12-14T00:42:44;7.92;81.60
70089;HTU21D;57460;47.134;19.888;2023-12-14T00:45:10;7.86;81.28
70089;HTU21D;57460;47.134;19.888;2023-12-14T00:47:36;7.84;81.62
70089;HTU21D;57460;47.134;19.888;2023-12-14T00:50:02;7.89;81.46
70089;HTU21D;57460;47.134;19.888;2023-12-14T00:52:28;7.91;81.46
70089;HTU21D;57460;47.134;19.888;2023-12-14T00:54:54;7.96;81.30
70089;HTU21D;57460;47.134;19.888;2023-12-14T00:57:20;7.79;80.86
70089;HTU21D;57460;47.134;19.888;2023-12-14T00:59:45;7.65;81.40
70089;HTU21D;57460;47.134;19.888;2023-12-14T01:02:11;7.68;81.90
70089;HTU21D;57460;47.134;19.888;2023-12-14T01:04:37;7.69;81.78
70089;HTU21D;57460;47.134;19.888;2023-12-14T01:07:04;7.68;82.06
70089;HTU21D;57460;47.134;19.888;2023-12-14T01:09:30;7.75;82.28
70089;HTU21D;57460;47.134;19.888;2023-12-14T01:11:56;7.92;82.00
70089;HTU21D;57460;47.134;19.888;2023-12-14T01:14:22;8.02;81.54
70089;HTU21D;57460;47.134;19.888;2023-12-14T01:16:47;8.04;81.36
70089;HTU21D;57460;47.134;19.888;2023-12-14T01:19:13;8.09;80.91
70089;HTU21D;57460;47.134;19.888;2023-12-14T01:21:39;8.15;80.14
70089;HTU21D;57460;47.134;19.888;2023-12-14T01:24:05;8.13;79.88
70089;HTU21D;57460;47.134;19.888;2023-12-14T01:26:31;8.09;79.82
70089;HTU21D;57460;47.134;19.888;2023-12-14T01:28:57;8.07;80.07
70089;HTU21D;57460;47.134;19.888;2023-12-14T01:31:24;8.03;80.07
70089;HTU21D;57460;47.134;19.888;2023-12-14T01:33:51;8.03;80.26
70089;HTU21D;57460;47.134;19.888;2023-12-14T01:36:21;8.05;80.24
70089;HTU21D;57460;47.134;19.888;2023-12-14T01:38:47;8.12;79.71
70089;HTU21D;57460;47.134;19.888;2023-12-14T01:41:13;8.01;79.80
70089;HTU21D;57460;47.134;19.888;2023-12-14T01:43:39;7.98;80.07
70089;HTU21D;57460;47.134;19.888;2023-12-14T01:46:05;8.06;79.17
70089;HTU21D;57460;47.134;19.888;2023-12-14T01:48:30;7.93;79.16
70089;HTU21D;57460;47.134;19.888;2023-12-14T01:50:56;7.79;79.74
70089;HTU21D;57460;47.134;19.888;2023-12-14T01:53:22;7.73;80.01
70089;HTU21D;57460;47.134;19.888;2023-12-14T01:55:48;7.71;80.03
70089;HTU21D;57460;47.134;19.888;2023-12-14T01:58:14;7.81;79.56
70089;HTU21D;57460;47.134;19.888;2023-12-14T02:01:28;7.71;79.71
70089;HTU21D;57460;47.134;19.888;2023-12-14T02:03:34;7.53;80.66
70089;HTU21D;57460;47.134;19.888;2023-12-14T02:05:59;7.46;80.46
70089;HTU21D;57460;47.134;19.888;2023-12-14T02:08:27;7.50;80.36
70089;HTU21D;57460;47.134;19.888;2023-12-14T02:10:53;7.40;80.70
70089;HTU21D;57460;47.134;19.888;2023-12-14T02:13:19;7.43;80.60
70089;HTU21D;57460;47.134;19.888;2023-12-14T02:15:45;7.60;80.02
70089;HTU21D;57460;47.134;19.888;2023-12-14T02:18:11;7.67;79.59
70089;HTU21D;57460;47.134;19.888;2023-12-14T02:20:36;7.56;80.01
70089;HTU21D;57460;47.134;19.888;2023-12-14T02:23:02;7.65;79.55
70089;HTU21D;57460;47.134;19.888;2023-12-14T02:25:28;7.69;79.55
70089;HTU21D;57460;47.134;19.888;2023-12-14T02:27:54;7.63;79.53
70089;HTU21D;57460;47.134;19.888;2023-12-14T02:30:19;7.65;79.76
70089;HTU21D;57460;47.134;19.888;2023-12-14T02:32:45;7.56;79.97
70089;HTU21D;57460;47.134;19.888;2023-12-14T02:35:11;7.44;80.95
70089;HTU21D;57460;47.134;19.888;2023-12-14T02:37:37;7.44;81.23
70089;HTU21D;57460;47.134;19.888;2023-12-14T02:40:04;7.75;79.81
70089;HTU21D;57460;47.134;19.888;2023-12-14T02:42:30;7.78;79.24
70089;HTU21D;57460;47.134;19.888;2023-12-14T02:44:56;7.68;79.63
70089;HTU21D;57460;47.134;19.888;2023-12-14T02:47:22;7.67;79.78
70089;HTU21D;57460;47.134;19.888;2023-12-14T02:49:48;7.65;79.58
70089;HTU21D;57460;47.134;19.888;2023-12-14T02:52:14;7.62;79.97
70089;HTU21D;57460;47.134;19.888;2023-12-14T02:54:40;7.73;79.51
70089;HTU21D;57460;47.134;19.888;2023-12-14T02:57:06;7.67;79.62
70089;HTU21D;57460;47.134;19.888;2023-12-14T02:59:32;7.72;79.54
70089;HTU21D;57460;47.134;19.888;2023-12-14T03:01:58;7.71;79.77
70089;HTU21D;57460;47.134;19.888;2023-12-14T03:04:25;7.76;79.40
70089;HTU21D;57460;47.134;19.888;2023-12-14T03:06:50;7.64;79.94
70089;HTU21D;57460;47.134;19.888;2023-12-14T03:09:16;7.68;79.57
70089;HTU21D;57460;47.134;19.888;2023-12-14T03:11:44;7.60;79.74
70089;HTU21D;57460;47.134;19.888;2023-12-14T03:14:10;7.56;80.06
70089;HTU21D;57460;47.134;19.888;2023-12-14T03:16:36;7.62;79.63
70089;HTU21D;57460;47.134;19.888;2023-12-14T03:19:02;7.57;79.95
70089;HTU21D;57460;47.134;19.888;2023-12-14T03:21:29;7.68;79.32
70089;HTU21D;57460;47.134;19.888;2023-12-14T03:23:55;7.69;79.14
70089;HTU21D;57460;47.134;19.888;2023-12-14T03:26:21;7.60;79.62
70089;HTU21D;57460;47.134;19.888;2023-12-14T03:28:47;7.54;79.72
70089;HTU21D;57460;47.134;19.888;2023-12-14T03:31:13;7.54;80.17
70089;HTU21D;57460;47.134;19.888;2023-12-14T03:33:40;7.52;80.04
70089;HTU21D;57460;47.134;19.888;2023-12-14T03:36:06;7.56;80.32
70089;HTU21D;57460;47.134;19.888;2023-12-14T03:38:32;7.57;80.48
70089;HTU21D;57460;47.134;19.888;2023-12-14T03:40:58;7.67;79.78
70089;HTU21D;57460;47.134;19.888;2023-12-14T03:43:24;7.62;79.76
70089;HTU21D;57460;47.134;19.888;2023-12-14T03:45:49;7.65;79.70
70089;HTU21D;57460;47.134;19.888;2023-12-14T03:48:15;7.57;80.01
70089;HTU21D;57460;47.134;19.888;2023-12-14T03:50:41;7.47;80.75
70089;HTU21D;57460;47.134;19.888;2023-12-14T03:53:07;7.61;80.85
70089;HTU21D;57460;47.134;19.888;2023-12-14T03:55:33;7.67;80.31
70089;HTU21D;57460;47.134;19.888;2023-12-14T03:57:59;7.70;80.28
70089;HTU21D;57460;47.134;19.888;2023-12-14T04:00:25;7.74;80.00
70089;HTU21D;57460;47.134;19.888;2023-12-14T04:02:51;7.61;80.30
70089;HTU21D;57460;47.134;19.888;2023-12-14T04:05:17;7.60;80.52
70089;HTU21D;57460;47.134;19.888;2023-12-14T04:07:43;7.58;80.63
70089;HTU21D;57460;47.134;19.888;2023-12-14T04:10:10;7.62;80.90
70089;HTU21D;57460;47.134;19.888;2023-12-14T04:12:37;7.63;80.77
70089;HTU21D;57460;47.134;19.888;2023-12-14T04:15:08;7.62;79.33
70089;HTU21D;57460;47.134;19.888;2023-12-14T04:17:34;7.50;80.24
70089;HTU21D;57460;47.134;19.888;2023-12-14T04:20:01;7.53;80.15
70089;HTU21D;57460;47.134;19.888;2023-12-14T04:22:28;7.50;80.59
70089;HTU21D;57460;47.134;19.888;2023-12-14T04:24:54;7.56;80.57
70089;HTU21D;57460;47.134;19.888;2023-12-14T04:27:20;7.56;80.75
70089;HTU21D;57460;47.134;19.888;2023-12-14T04:29:46;7.65;80.24
70089;HTU21D;57460;47.134;19.888;2023-12-14T04:32:12;7.62;80.42
70089;HTU21D;57460;47.134;19.888;2023-12-14T04:34:38;7.52;80.75
70089;HTU21D;57460;47.134;19.888;2023-12-14T04:37:03;7.55;80.94
70089;HTU21D;57460;47.134;19.888;2023-12-14T04:39:29;7.60;81.06
70089;HTU21D;57460;47.134;19.888;2023-12-14T04:41:55;7.63;80.92
70089;HTU21D;57460;47.134;19.888;2023-12-14T04:44:21;7.70;80.78
70089;HTU21D;57460;47.134;19.888;2023-12-14T04:46:50;7.73;80.50
70089;HTU21D;57460;47.134;19.888;2023-12-14T04:49:16;7.73;80.75
70089;HTU21D;57460;47.134;19.888;2023-12-14T04:51:42;7.75;80.64
70089;HTU21D;57460;47.134;19.888;2023-12-14T04:54:08;7.73;80.63
70089;HTU21D;57460;47.134;19.888;2023-12-14T04:56:34;7.79;80.75
70089;HTU21D;57460;47.134;19.888;2023-12-14T04:59:01;7.82;80.40
70089;HTU21D;57460;47.134;19.888;2023-12-14T05:01:27;7.82;80.03
70089;HTU21D;57460;47.134;19.888;2023-12-14T05:03:53;7.70;80.30
70089;HTU21D;57460;47.134;19.888;2023-12-14T05:06:19;7.64;80.46
70089;HTU21D;57460;47.134;19.888;2023-12-14T05:08:45;7.64;80.77
70089;HTU21D;57460;47.134;19.888;2023-12-14T05:11:13;7.64;80.86
70089;HTU21D;57460;47.134;19.888;2023-12-14T05:13:39;7.67;80.78
70089;HTU21D;57460;47.134;19.888;2023-12-14T05:16:05;7.65;80.29
70089;HTU21D;57460;47.134;19.888;2023-12-14T05:18:31;7.67;80.12
70089;HTU21D;57460;47.134;19.888;2023-12-14T05:20:57;7.35;80.74
70089;HTU21D;57460;47.134;19.888;2023-12-14T05:23:23;7.17;81.39
70089;HTU21D;57460;47.134;19.888;2023-12-14T05:25:52;7.14;82.20
70089;HTU21D;57460;47.134;19.888;2023-12-14T05:28:18;7.22;82.15
70089;HTU21D;57460;47.134;19.888;2023-12-14T05:30:43;7.38;81.76
70089;HTU21D;57460;47.134;19.888;2023-12-14T05:33:09;7.50;81.20
70089;HTU21D;57460;47.134;19.888;2023-12-14T05:35:35;7.50;80.94
70089;HTU21D;57460;47.134;19.888;2023-12-14T05:38:00;7.52;81.07
70089;HTU21D;57460;47.134;19.888;2023-12-14T05:40:26;7.55;81.00
70089;HTU21D;57460;47.134;19.888;2023-12-14T05:42:52;7.57;80.88
70089;HTU21D;57460;47.134;19.888;2023-12-14T05:45:17;7.56;80.94
70089;HTU21D;57460;47.134;19.888;2023-12-14T05:47:46;7.52;80.94
70089;HTU21D;57460;47.134;19.888;2023-12-14T05:50:12;7.45;81.14
70089;HTU21D;57460;47.134;19.888;2023-12-14T05:52:38;7.43;81.46
70089;HTU21D;57460;47.134;19.888;2023-12-14T05:55:04;7.38;81.14
70089;HTU21D;57460;47.134;19.888;2023-12-14T05:57:30;7.41;81.39
70089;HTU21D;57460;47.134;19.888;2023-12-14T05:59:56;7.43;81.48
70089;HTU21D;57460;47.134;19.888;2023-12-14T06:02:22;7.52;81.47
70089;HTU21D;57460;47.134;19.888;2023-12-14T06:04:48;7.57;81.32
70089;HTU21D;57460;47.134;19.888;2023-12-14T06:07:16;7.65;81.14
70089;HTU21D;57460;47.134;19.888;2023-12-14T06:09:42;7.67;80.91
70089;HTU21D;57460;47.134;19.888;2023-12-14T06:12:08;7.71;80.91
70089;HTU21D;57460;47.134;19.888;2023-12-14T06:14:34;7.74;80.52
70089;HTU21D;57460;47.134;19.888;2023-12-14T06:17:00;7.76;80.67
70089;HTU21D;57460;47.134;19.888;2023-12-14T06:19:26;7.83;80.65
70089;HTU21D;57460;47.134;19.888;2023-12-14T06:21:52;7.65;79.84
70089;HTU21D;57460;47.134;19.888;2023-12-14T06:24:17;7.48;80.24
70089;HTU21D;57460;47.134;19.888;2023-12-14T06:26:44;7.32;81.29
70089;HTU21D;57460;47.134;19.888;2023-12-14T06:29:11;7.39;81.22
70089;HTU21D;57460;47.134;19.888;2023-12-14T06:31:38;7.55;80.52
70089;HTU21D;57460;47.134;19.888;2023-12-14T06:34:04;7.57;79.89
70089;HTU21D;57460;47.134;19.888;2023-12-14T06:36:34;7.44;80.63
70089;HTU21D;57460;47.134;19.888;2023-12-14T06:39:01;7.38;81.11
70089;HTU21D;57460;47.134;19.888;2023-12-14T06:41:27;7.33;81.53
70089;HTU21D;57460;47.134;19.888;2023-12-14T06:43:54;7.34;81.54
70089;HTU21D;57460;47.134;19.888;2023-12-14T06:46:20;7.31;81.58
70089;HTU21D;57460;47.134;19.888;2023-12-14T06:48:47;7.37;81.72
70089;HTU21D;57460;47.134;19.888;2023-12-14T06:51:13;7.49;81.43
70089;HTU21D;57460;47.134;19.888;2023-12-14T06:53:41;7.54;81.44
70089;HTU21D;57460;47.134;19.888;2023-12-14T06:56:07;7.61;81.03
70089;HTU21D;57460;47.134;19.888;2023-12-14T06:58:41;7.54;80.80
70089;HTU21D;57460;47.134;19.888;2023-12-14T07:01:10;7.54;81.14
70089;HTU21D;57460;47.134;19.888;2023-12-14T07:03:42;7.58;81.20
70089;HTU21D;57460;47.134;19.888;2023-12-14T07:06:17;7.63;80.91
70089;HTU21D;57460;47.134;19.888;2023-12-14T07:08:43;7.67;81.04
70089;HTU21D;57460;47.134;19.888;2023-12-14T07:11:10;7.73;80.62
70089;HTU21D;57460;47.134;19.888;2023-12-14T07:13:35;7.77;80.70
70089;HTU21D;57460;47.134;19.888;2023-12-14T07:16:09;7.71;79.60
70089;HTU21D;57460;47.134;19.888;2023-12-14T07:18:39;7.49;80.99
70089;HTU21D;57460;47.134;19.888;2023-12-14T07:21:06;7.45;80.84
70089;HTU21D;57460;47.134;19.888;2023-12-14T07:23:32;7.43;80.73
70089;HTU21D;57460;47.134;19.888;2023-12-14T07:25:58;7.27;81.20
70089;HTU21D;57460;47.134;19.888;2023-12-14T07:28:24;7.09;82.72
70089;HTU21D;57460;47.134;19.888;2023-12-14T07:30:50;7.15;82.56
70089;HTU21D;57460;47.134;19.888;2023-12-14T07:33:16;7.24;82.48
70089;HTU21D;57460;47.134;19.888;2023-12-14T07:35:42;7.23;82.57
70089;HTU21D;57460;47.134;19.888;2023-12-14T07:38:11;7.25;82.55
70089;HTU21D;57460;47.134;19.888;2023-12-14T07:40:37;7.31;82.16
70089;HTU21D;57460;47.134;19.888;2023-12-14T07:43:04;7.46;81.23
70089;HTU21D;57460;47.134;19.888;2023-12-14T07:45:30;7.55;81.10
70089;HTU21D;57460;47.134;19.888;2023-12-14T07:47:56;7.72;80.21
70089;HTU21D;57460;47.134;19.888;2023-12-14T07:50:22;7.71;80.34
70089;HTU21D;57460;47.134;19.888;2023-12-14T07:52:47;7.61;80.84
70089;HTU21D;57460;47.134;19.888;2023-12-14T07:55:13;7.55;81.18
70089;HTU21D;57460;47.134;19.888;2023-12-14T07:57:39;7.60;81.20
70089;HTU21D;57460;47.134;19.888;2023-12-14T08:00:06;7.64;81.52
70089;HTU21D;57460;47.134;19.888;2023-12-14T08:02:34;7.74;81.23
70089;HTU21D;57460;47.134;19.888;2023-12-14T08:04:59;7.78;81.14
70089;HTU21D;57460;47.134;19.888;2023-12-14T08:07:25;7.98;80.01
70089;HTU21D;57460;47.134;19.888;2023-12-14T08:09:57;7.94;80.62
70089;HTU21D;57460;47.134;19.888;2023-12-14T08:12:23;8.02;80.59
70089;HTU21D;57460;47.134;19.888;2023-12-14T08:14:50;8.03;80.72
70089;HTU21D;57460;47.134;19.888;2023-12-14T08:17:16;8.18;79.78
70089;HTU21D;57460;47.134;19.888;2023-12-14T08:19:42;8.24;79.50
70089;HTU21D;57460;47.134;19.888;2023-12-14T08:22:08;8.29;78.80
70089;HTU21D;57460;47.134;19.888;2023-12-14T08:24:39;8.38;78.71
70089;HTU21D;57460;47.134;19.888;2023-12-14T08:27:05;8.19;79.11
70089;HTU21D;57460;47.134;19.888;2023-12-14T08:29:31;8.00;79.55
70089;HTU21D;57460;47.134;19.888;2023-12-14T08:31:57;8.12;79.49
70089;HTU21D;57460;47.134;19.888;2023-12-14T08:34:25;8.28;78.93
70089;HTU21D;57460;47.134;19.888;2023-12-14T08:36:51;8.29;78.86
70089;HTU21D;57460;47.134;19.888;2023-12-14T08:39:17;8.33;78.66
70089;HTU21D;57460;47.134;19.888;2023-12-14T08:41:43;8.44;78.25
70089;HTU21D;57460;47.134;19.888;2023-12-14T08:44:10;8.31;78.72
70089;HTU21D;57460;47.134;19.888;2023-12-14T08:46:44;8.35;78.69
70089;HTU21D;57460;47.134;19.888;2023-12-14T08:49:11;8.39;78.24
70089;HTU21D;57460;47.134;19.888;2023-12-14T08:51:38;8.48;77.69
70089;HTU21D;57460;47.134;19.888;2023-12-14T08:54:05;8.50;77.53
70089;HTU21D;57460;47.134;19.888;2023-12-14T08:56:30;8.55;77.34
70089;HTU21D;57460;47.134;19.888;2023-12-14T08:58:56;8.34;78.21
70089;HTU21D;57460;47.134;19.888;2023-12-14T09:01:23;8.39;78.42
70089;HTU21D;57460;47.134;19.888;2023-12-14T09:03:49;8.36;78.78
70089;HTU21D;57460;47.134;19.888;2023-12-14T09:06:18;8.51;78.23
70089;HTU21D;57460;47.134;19.888;2023-12-14T09:08:45;8.60;77.97
70089;HTU21D;57460;47.134;19.888;2023-12-14T09:11:11;8.64;77.51
70089;HTU21D;57460;47.134;19.888;2023-12-14T09:13:37;8.76;76.96
70089;HTU21D;57460;47.134;19.888;2023-12-14T09:16:03;8.66;77.10
70089;HTU21D;57460;47.134;19.888;2023-12-14T09:18:29;8.50;77.68
70089;HTU21D;57460;47.134;19.888;2023-12-14T09:20:56;8.56;77.98
70089;HTU21D;57460;47.134;19.888;2023-12-14T09:23:21;8.49;78.25
70089;HTU21D;57460;47.134;19.888;2023-12-14T09:25:47;8.55;78.40
70089;HTU21D;57460;47.134;19.888;2023-12-14T09:28:13;8.55;78.47
70089;HTU21D;57460;47.134;19.888;2023-12-14T09:30:39;8.57;78.63
70089;HTU21D;57460;47.134;19.888;2023-12-14T09:33:05;8.59;78.36
70089;HTU21D;57460;47.134;19.888;2023-12-14T09:35:34;8.65;78.20
70089;HTU21D;57460;47.134;19.888;2023-12-14T09:38:03;8.59;78.80
70089;HTU21D;57460;47.134;19.888;2023-12-14T09:40:29;8.65;78.72
70089;HTU21D;57460;47.134;19.888;2023-12-14T09:42:56;8.79;78.08
70089;HTU21D;57460;47.134;19.888;2023-12-14T09:45:27;8.74;77.76
70089;HTU21D;57460;47.134;19.888;2023-12-14T09:47:54;8.78;77.45
70089;HTU21D;57460;47.134;19.888;2023-12-14T09:50:20;8.72;77.81
70089;HTU21D;57460;47.134;19.888;2023-12-14T09:52:46;8.71;78.03
70089;HTU21D;57460;47.134;19.888;2023-12-14T09:55:15;8.76;78.01
70089;HTU21D;57460;47.134;19.888;2023-12-14T09:57:41;8.71;78.17
70089;HTU21D;57460;47.134;19.888;2023-12-14T10:00:07;8.72;79.05
70089;HTU21D;57460;47.134;19.888;2023-12-14T10:02:37;8.81;78.64
70089;HTU21D;57460;47.134;19.888;2023-12-14T10:05:03;8.78;78.55
70089;HTU21D;57460;47.134;19.888;2023-12-14T10:07:31;8.78;78.36
70089;HTU21D;57460;47.134;19.888;2023-12-14T10:10:10;8.85;78.57
70089;HTU21D;57460;47.134;19.888;2023-12-14T10:12:52;8.85;78.89
70089;HTU21D;57460;47.134;19.888;2023-12-14T10:15:19;8.89;78.76
70089;HTU21D;57460;47.134;19.888;2023-12-14T10:17:44;9.04;78.49
70089;HTU21D;57460;47.134;19.888;2023-12-14T10:20:19;9.09;77.95
70089;HTU21D;57460;47.134;19.888;2023-12-14T10:22:48;9.15;77.79
70089;HTU21D;57460;47.134;19.888;2023-12-14T10:25:19;9.09;78.02
70089;HTU21D;57460;47.134;19.888;2023-12-14T10:27:46;9.08;77.98
70089;HTU21D;57460;47.134;19.888;2023-12-14T10:30:14;9.03;78.24
70089;HTU21D;57460;47.134;19.888;2023-12-14T10:32:41;9.14;78.19
70089;HTU21D;57460;47.134;19.888;2023-12-14T10:35:07;9.12;77.67
70089;HTU21D;57460;47.134;19.888;2023-12-14T10:37:37;9.06;78.18
70089;HTU21D;57460;47.134;19.888;2023-12-14T10:40:06;9.15;77.49
70089;HTU21D;57460;47.134;19.888;2023-12-14T10:42:35;9.16;77.89
70089;HTU21D;57460;47.134;19.888;2023-12-14T10:45:03;9.16;77.98
70089;HTU21D;57460;47.134;19.888;2023-12-14T10:47:29;9.21;77.30
70089;HTU21D;57460;47.134;19.888;2023-12-14T10:49:56;9.17;77.88
70089;HTU21D;57460;47.134;19.888;2023-12-14T10:52:25;9.19;76.74
70089;HTU21D;57460;47.134;19.888;2023-12-14T10:54:58;8.91;77.82
70089;HTU21D;57460;47.134;19.888;2023-12-14T10:57:25;8.73;78.82
70089;HTU21D;57460;47.134;19.888;2023-12-14T10:59:57;8.92;78.56
70089;HTU21D;57460;47.134;19.888;2023-12-14T11:02:24;9.10;77.92
70089;HTU21D;57460;47.134;19.888;2023-12-14T11:05:03;9.26;77.36
70089;HTU21D;57460;47.134;19.888;2023-12-14T11:10:40;9.64;75.39
70089;HTU21D;57460;47.134;19.888;2023-12-14T11:13:11;9.62;75.30
70089;HTU21D;57460;47.134;19.888;2023-12-14T11:15:45;9.61;75.08
70089;HTU21D;57460;47.134;19.888;2023-12-14T11:20:59;9.55;75.41
70089;HTU21D;57460;47.134;19.888;2023-12-14T11:25:53;9.57;75.22
70089;HTU21D;57460;47.134;19.888;2023-12-14T11:28:20;9.65;74.85
70089;HTU21D;57460;47.134;19.888;2023-12-14T11:30:46;9.54;75.09
70089;HTU21D;57460;47.134;19.888;2023-12-14T11:33:14;9.67;74.41
70089;HTU21D;57460;47.134;19.888;2023-12-14T11:35:40;9.66;74.08
70089;HTU21D;57460;47.134;19.888;2023-12-14T11:38:07;9.60;73.90
70089;HTU21D;57460;47.134;19.888;2023-12-14T11:40:39;9.65;73.73
70089;HTU21D;57460;47.134;19.888;2023-12-14T11:43:05;9.53;74.38
70089;HTU21D;57460;47.134;19.888;2023-12-14T11:45:39;9.59;74.18
70089;HTU21D;57460;47.134;19.888;2023-12-14T11:48:10;9.54;74.66
70089;HTU21D;57460;47.134;19.888;2023-12-14T11:50:42;9.54;74.61
70089;HTU21D;57460;47.134;19.888;2023-12-14T11:53:09;9.51;74.85
70089;HTU21D;57460;47.134;19.888;2023-12-14T11:55:39;9.59;74.64
70089;HTU21D;57460;47.134;19.888;2023-12-14T11:58:05;9.57;74.43
70089;HTU21D;57460;47.134;19.888;2023-12-14T12:00:33;9.71;74.69
70089;HTU21D;57460;47.134;19.888;2023-12-14T12:03:20;9.82;73.80
70089;HTU21D;57460;47.134;19.888;2023-12-14T12:05:51;9.83;73.54
70089;HTU21D;57460;47.134;19.888;2023-12-14T12:08:19;9.84;73.64
70089;HTU21D;57460;47.134;19.888;2023-12-14T12:10:47;9.75;74.20
70089;HTU21D;57460;47.134;19.888;2023-12-14T12:13:20;9.71;74.73
70089;HTU21D;57460;47.134;19.888;2023-12-14T12:15:46;9.76;75.04
70089;HTU21D;57460;47.134;19.888;2023-12-14T12:18:15;9.82;75.08
70089;HTU21D;57460;47.134;19.888;2023-12-14T12:20:42;10.03;73.83
70089;HTU21D;57460;47.134;19.888;2023-12-14T12:23:08;10.06;73.52
70089;HTU21D;57460;47.134;19.888;2023-12-14T12:25:34;10.08;73.49
70089;HTU21D;57460;47.134;19.888;2023-12-14T12:28:01;10.10;73.51
70089;HTU21D;57460;47.134;19.888;2023-12-14T12:30:27;10.21;72.11
70089;HTU21D;57460;47.134;19.888;2023-12-14T12:32:53;10.22;72.06
70089;HTU21D;57460;47.134;19.888;2023-12-14T12:35:22;10.19;71.69
70089;HTU21D;57460;47.134;19.888;2023-12-14T12:37:49;10.07;72.16
70089;HTU21D;57460;47.134;19.888;2023-12-14T12:40:23;10.13;71.31
70089;HTU21D;57460;47.134;19.888;2023-12-14T12:42:51;10.06;71.34
70089;HTU21D;57460;47.134;19.888;2023-12-14T12:45:17;10.03;71.74
70089;HTU21D;57460;47.134;19.888;2023-12-14T12:47:43;10.07;71.42
70089;HTU21D;57460;47.134;19.888;2023-12-14T12:50:10;10.05;71.57
70089;HTU21D;57460;47.134;19.888;2023-12-14T12:52:35;10.07;71.68
70089;HTU21D;57460;47.134;19.888;2023-12-14T12:55:03;10.04;71.16
70089;HTU21D;57460;47.134;19.888;2023-12-14T12:57:29;9.99;72.02
70089;HTU21D;57460;47.134;19.888;2023-12-14T12:59:55;9.96;72.32
70089;HTU21D;57460;47.134;19.888;2023-12-14T13:02:21;10.04;72.19
70089;HTU21D;57460;47.134;19.888;2023-12-14T13:04:47;10.07;71.32
70089;HTU21D;57460;47.134;19.888;2023-12-14T13:07:12;9.91;72.52
70089;HTU21D;57460;47.134;19.888;2023-12-14T13:09:38;9.89;72.56
70089;HTU21D;57460;47.134;19.888;2023-12-14T13:12:06;9.99;72.12
70089;HTU21D;57460;47.134;19.888;2023-12-14T13:14:32;9.92;71.62
70089;HTU21D;57460;47.134;19.888;2023-12-14T13:16:57;9.72;72.81
70089;HTU21D;57460;47.134;19.888;2023-12-14T13:19:26;9.78;72.94
70089;HTU21D;57460;47.134;19.888;2023-12-14T13:21:52;9.83;72.83
70089;HTU21D;57460;47.134;19.888;2023-12-14T13:24:18;9.84;72.90
70089;HTU21D;57460;47.134;19.888;2023-12-14T13:26:44;9.92;72.61
70089;HTU21D;57460;47.134;19.888;2023-12-14T13:29:11;9.93;72.36
70089;HTU21D;57460;47.134;19.888;2023-12-14T13:31:37;10.01;71.51
70089;HTU21D;57460;47.134;19.888;2023-12-14T13:34:04;9.88;72.14
70089;HTU21D;57460;47.134;19.888;2023-12-14T13:36:29;9.81;72.67
70089;HTU21D;57460;47.134;19.888;2023-12-14T13:38:55;9.80;72.93
70089;HTU21D;57460;47.134;19.888;2023-12-14T13:41:22;9.74;73.43
70089;HTU21D;57460;47.134;19.888;2023-12-14T13:43:48;9.68;73.93
70089;HTU21D;57460;47.134;19.888;2023-12-14T13:46:14;9.94;72.76
70089;HTU21D;57460;47.134;19.888;2023-12-14T13:48:40;9.82;73.32
70089;HTU21D;57460;47.134;19.888;2023-12-14T13:51:06;9.80;73.53
70089;HTU21D;57460;47.134;19.888;2023-12-14T13:53:33;10.05;72.09
70089;HTU21D;57460;47.134;19.888;2023-12-14T13:55:59;9.90;72.35
70089;HTU21D;57460;47.134;19.888;2023-12-14T13:58:25;9.82;72.96
70089;HTU21D;57460;47.134;19.888;2023-12-14T14:00:51;9.89;72.83
70089;HTU21D;57460;47.134;19.888;2023-12-14T14:03:16;9.82;72.91
70089;HTU21D;57460;47.134;19.888;2023-12-14T14:05:42;9.75;73.54
70089;HTU21D;57460;47.134;19.888;2023-12-14T14:08:09;9.76;73.60
70089;HTU21D;57460;47.134;19.888;2023-12-14T14:10:36;9.76;73.79
70089;HTU21D;57460;47.134;19.888;2023-12-14T14:13:02;9.70;74.06
70089;HTU21D;57460;47.134;19.888;2023-12-14T14:15:28;9.80;73.97
70089;HTU21D;57460;47.134;19.888;2023-12-14T14:17:54;9.74;74.37
70089;HTU21D;57460;47.134;19.888;2023-12-14T14:20:20;9.82;74.04
70089;HTU21D;57460;47.134;19.888;2023-12-14T14:22:47;9.88;73.81
70089;HTU21D;57460;47.134;19.888;2023-12-14T14:25:13;9.83;73.84
70089;HTU21D;57460;47.134;19.888;2023-12-14T14:27:39;9.88;73.73
70089;HTU21D;57460;47.134;19.888;2023-12-14T14:30:07;9.88;73.66
70089;HTU21D;57460;47.134;19.888;2023-12-14T14:32:33;9.89;73.36
70089;HTU21D;57460;47.134;19.888;2023-12-14T14:35:01;9.91;73.19
70089;HTU21D;57460;47.134;19.888;2023-12-14T14:37:27;9.79;73.73
70089;HTU21D;57460;47.134;19.888;2023-12-14T14:39:52;9.76;73.90
70089;HTU21D;57460;47.134;19.888;2023-12-14T14:42:18;9.66;74.11
70089;HTU21D;57460;47.134;19.888;2023-12-14T14:44:44;9.61;74.75
70089;HTU21D;57460;47.134;19.888;2023-12-14T14:47:09;9.63;74.80
70089;HTU21D;57460;47.134;19.888;2023-12-14T14:49:35;9.71;74.55
70089;HTU21D;57460;47.134;19.888;2023-12-14T14:52:01;9.72;74.10
70089;HTU21D;57460;47.134;19.888;2023-12-14T14:54:27;9.70;74.06
70089;HTU21D;57460;47.134;19.888;2023-12-14T14:56:53;9.65;74.18
70089;HTU21D;57460;47.134;19.888;2023-12-14T14:59:18;9.63;74.40
70089;HTU21D;57460;47.134;19.888;2023-12-14T15:01:44;9.64;74.48
70089;HTU21D;57460;47.134;19.888;2023-12-14T15:04:13;9.61;74.72
70089;HTU21D;57460;47.134;19.888;2023-12-14T15:06:38;9.59;74.51
70089;HTU21D;57460;47.134;19.888;2023-12-14T15:09:07;9.50;75.01
70089;HTU21D;57460;47.134;19.888;2023-12-14T15:11:33;9.51;75.12
70089;HTU21D;57460;47.134;19.888;2023-12-14T15:13:59;9.49;75.12
70089;HTU21D;57460;47.134;19.888;2023-12-14T15:16:25;9.44;75.19
70089;HTU21D;57460;47.134;19.888;2023-12-14T15:18:51;9.40;75.16
70089;HTU21D;57460;47.134;19.888;2023-12-14T15:21:17;9.09;76.30